createdAt,value
2023-05-19T00:00:18.104Z,0
2023-05-19T00:01:39.235Z,0
2023-05-19T00:03:00.335Z,0
2023-05-19T00:04:20.473Z,0
2023-05-19T00:19:41.434Z,0
2023-05-19T00:35:02.405Z,0
2023-05-19T00:50:23.363Z,0
2023-05-19T01:05:44.336Z,0
2023-05-19T01:21:05.305Z,0
2023-05-19T01:36:26.270Z,0
2023-05-19T01:51:47.239Z,0
2023-05-19T02:07:08.199Z,0
2023-05-19T02:22:29.178Z,0
2023-05-19T02:37:50.143Z,0
2023-05-19T02:53:11.060Z,2
2023-05-19T03:08:31.993Z,15
2023-05-19T03:23:51.917Z,34
2023-05-19T03:39:12.845Z,79
2023-05-19T03:54:33.764Z,130
2023-05-19T04:09:54.672Z,229
2023-05-19T04:25:15.601Z,458
2023-05-19T04:40:36.542Z,1024
2023-05-19T04:55:57.446Z,1803
2023-05-19T05:11:18.400Z,8438
2023-05-19T05:26:39.320Z,4495
2023-05-19T05:28:00.380Z,4669
2023-05-19T05:29:21.442Z,4835
2023-05-19T05:30:42.512Z,5162
2023-05-19T05:32:03.576Z,5743
2023-05-19T05:33:23.665Z,5997
2023-05-19T05:34:44.728Z,6128
2023-05-19T05:36:05.796Z,6281
2023-05-19T05:37:26.869Z,6315
2023-05-19T05:38:47.957Z,6202
2023-05-19T05:40:09.005Z,6240
2023-05-19T05:41:30.079Z,6146
2023-05-19T05:42:51.152Z,6403
2023-05-19T05:45:33.260Z,6051
2023-05-19T05:46:54.335Z,5909
2023-05-19T05:48:15.402Z,3072
2023-05-19T05:49:36.473Z,6015
2023-05-19T05:50:57.671Z,6247
2023-05-19T05:52:18.726Z,6499
2023-05-19T05:53:39.801Z,6500
2023-05-19T05:55:00.872Z,6563
2023-05-19T05:56:21.923Z,6772
2023-05-19T05:57:43.006Z,7264
2023-05-19T05:59:04.061Z,7864
2023-05-19T06:00:25.140Z,8427
2023-05-19T06:01:46.214Z,9065
2023-05-19T06:03:07.289Z,9717
2023-05-19T06:04:28.357Z,10254
2023-05-19T06:05:49.447Z,11409
2023-05-19T06:07:10.520Z,17367
2023-05-19T06:08:30.625Z,15392
2023-05-19T06:09:51.691Z,21778
2023-05-19T06:11:12.762Z,14762
2023-05-19T06:12:33.843Z,17035
2023-05-19T06:13:54.926Z,20059
2023-05-19T06:15:16.016Z,22384
2023-05-19T06:16:37.082Z,23053
2023-05-19T06:17:58.151Z,76718
2023-05-19T06:19:19.214Z,77844
2023-05-19T06:20:40.322Z,3072
2023-05-19T06:22:01.385Z,78948
2023-05-19T06:23:22.471Z,3072
2023-05-19T06:24:43.539Z,77208
2023-05-19T06:26:03.642Z,77823
2023-05-19T06:27:24.708Z,76253
2023-05-19T06:28:45.769Z,76538
2023-05-19T06:30:06.873Z,75574
2023-05-19T06:31:27.936Z,76973
2023-05-19T06:32:49.032Z,78896
2023-05-19T06:34:10.097Z,78853
2023-05-19T06:35:31.176Z,77277
2023-05-19T06:36:52.250Z,75529
2023-05-19T06:38:13.342Z,75675
2023-05-19T06:39:34.414Z,26479
2023-05-19T06:40:55.478Z,21473
2023-05-19T06:42:16.563Z,25863
2023-05-19T06:43:36.643Z,80496
2023-05-19T06:44:57.722Z,79743
2023-05-19T06:46:18.786Z,80709
2023-05-19T06:47:39.884Z,81110
2023-05-19T06:49:00.944Z,80838
2023-05-19T06:50:22.032Z,80552
2023-05-19T06:51:43.123Z,3072
2023-05-19T06:53:04.194Z,82059
2023-05-19T06:54:25.265Z,80258
2023-05-19T06:55:46.320Z,18836
2023-05-19T06:57:07.430Z,79386
2023-05-19T06:58:28.484Z,21716
2023-05-19T06:59:49.569Z,18085
2023-05-19T07:01:09.668Z,15753
2023-05-19T07:02:30.749Z,13634
2023-05-19T07:03:51.822Z,14535
2023-05-19T07:05:12.901Z,15360
2023-05-19T07:06:33.958Z,23759
2023-05-19T07:07:55.041Z,16770
2023-05-19T07:09:16.121Z,21674
2023-05-19T07:10:37.213Z,21806
2023-05-19T07:11:58.274Z,20558
2023-05-19T07:13:19.370Z,23774
2023-05-19T07:14:40.430Z,24406
2023-05-19T07:16:01.520Z,75744
2023-05-19T07:17:22.579Z,75982
2023-05-19T07:18:42.688Z,79413
2023-05-19T07:20:03.769Z,79315
2023-05-19T07:21:24.826Z,76866
2023-05-19T07:22:45.907Z,82072
2023-05-19T07:24:06.965Z,28480
2023-05-19T07:25:28.068Z,76663
2023-05-19T07:26:49.155Z,78640
2023-05-19T07:28:10.220Z,79665
2023-05-19T07:29:31.286Z,80092
2023-05-19T07:30:52.383Z,80980
2023-05-19T07:32:13.443Z,76120
2023-05-19T07:33:34.516Z,81351
2023-05-19T07:34:55.604Z,76742
2023-05-19T07:36:15.682Z,79806
2023-05-19T07:37:36.784Z,82180
2023-05-19T07:38:57.871Z,3072
2023-05-19T07:40:18.921Z,78549
2023-05-19T07:41:40.014Z,78276
2023-05-19T07:43:01.091Z,81188
2023-05-19T07:44:22.178Z,81560
2023-05-19T07:45:43.239Z,81606
2023-05-19T07:47:04.321Z,82310
2023-05-19T07:48:25.411Z,80582
2023-05-19T07:49:46.476Z,81455
2023-05-19T07:51:07.555Z,80200
2023-05-19T07:52:28.634Z,80517
2023-05-19T07:53:48.726Z,79629
2023-05-19T07:55:09.795Z,81218
2023-05-19T07:56:30.878Z,81426
2023-05-19T07:57:51.960Z,81125
2023-05-19T07:59:13.041Z,3072
2023-05-19T08:00:34.109Z,77208
2023-05-19T08:01:55.174Z,80025
2023-05-19T08:03:16.257Z,76099
2023-05-19T08:04:37.342Z,30844
2023-05-19T08:05:58.407Z,28673
2023-05-19T08:07:19.491Z,80827
2023-05-19T08:08:40.578Z,79484
2023-05-19T08:10:01.638Z,75903
2023-05-19T08:11:21.744Z,28799
2023-05-19T08:12:42.830Z,81812
2023-05-19T08:14:03.906Z,27637
2023-05-19T08:15:24.992Z,78000
2023-05-19T08:16:46.057Z,23715
2023-05-19T08:18:07.128Z,24697
2023-05-19T08:19:28.213Z,3072
2023-05-19T08:20:49.294Z,14546
2023-05-19T08:22:10.347Z,14459
2023-05-19T08:23:31.433Z,14761
2023-05-19T08:24:52.517Z,19100
2023-05-19T08:26:13.596Z,11875
2023-05-19T08:27:34.669Z,16171
2023-05-19T08:28:54.774Z,23850
2023-05-19T08:30:15.851Z,79281
2023-05-19T08:31:36.926Z,77010
2023-05-19T08:32:57.988Z,22978
2023-05-19T08:34:19.049Z,19867
2023-05-19T08:35:40.150Z,27381
2023-05-19T08:37:01.206Z,25207
2023-05-19T08:38:22.305Z,23698
2023-05-19T08:39:43.385Z,3072
2023-05-19T08:41:04.461Z,13928
2023-05-19T08:42:25.520Z,11102
2023-05-19T08:43:46.623Z,10632
2023-05-19T08:45:07.701Z,9954
2023-05-19T08:46:27.765Z,8830
2023-05-19T08:47:48.851Z,8172
2023-05-19T08:49:09.932Z,7776
2023-05-19T08:50:31.018Z,7560
2023-05-19T08:51:52.094Z,7545
2023-05-19T08:53:13.168Z,7180
2023-05-19T08:54:33.252Z,7720
2023-05-19T08:55:54.335Z,7134
2023-05-19T08:57:15.421Z,6991
2023-05-19T08:58:36.497Z,6781
2023-05-19T08:59:57.556Z,6544
2023-05-19T09:01:18.646Z,7013
2023-05-19T09:02:39.722Z,6643
2023-05-19T09:04:00.785Z,6368
2023-05-19T09:05:21.876Z,6082
2023-05-19T09:06:42.956Z,5474
2023-05-19T09:08:04.040Z,5329
2023-05-19T09:09:25.088Z,5708
2023-05-19T09:10:46.184Z,6006
2023-05-19T09:12:06.278Z,5698
2023-05-19T09:13:27.368Z,5635
2023-05-19T09:14:48.432Z,5635
2023-05-19T09:16:09.514Z,5616
2023-05-19T09:17:30.593Z,5574
2023-05-19T09:18:51.655Z,5410
2023-05-19T09:20:12.743Z,5974
2023-05-19T09:21:33.814Z,5956
2023-05-19T09:22:54.898Z,6047
2023-05-19T09:24:15.953Z,6179
2023-05-19T09:25:37.023Z,6180
2023-05-19T09:26:58.101Z,6177
2023-05-19T09:28:19.172Z,5905
2023-05-19T09:29:39.266Z,5726
2023-05-19T09:31:00.345Z,5542
2023-05-19T09:32:21.421Z,5210
2023-05-19T09:33:42.497Z,4927
2023-05-19T09:35:03.567Z,4869
2023-05-19T09:36:24.655Z,4672
2023-05-19T09:37:45.714Z,4318
2023-05-19T09:39:06.778Z,4184
2023-05-19T09:40:27.866Z,4073
2023-05-19T09:41:48.941Z,3913
2023-05-19T09:43:09.995Z,3870
2023-05-19T09:44:31.087Z,3496
2023-05-19T09:45:52.175Z,3241
2023-05-19T09:47:12.264Z,3175
2023-05-19T09:48:33.339Z,3131
2023-05-19T09:49:54.421Z,3133
2023-05-19T09:51:15.513Z,3103
2023-05-19T09:52:36.583Z,3037
2023-05-19T09:53:57.634Z,3032
2023-05-19T09:55:18.704Z,3002
2023-05-19T09:56:39.782Z,2988
2023-05-19T09:58:00.889Z,2950
2023-05-19T09:59:21.953Z,3072
2023-05-19T10:00:43.011Z,2843
2023-05-19T10:02:04.085Z,2848
2023-05-19T10:03:25.196Z,2848
2023-05-19T10:04:45.282Z,2817
2023-05-19T10:06:06.368Z,3072
2023-05-19T10:07:27.424Z,2810
2023-05-19T10:08:48.524Z,2779
2023-05-19T10:10:09.595Z,2747
2023-05-19T10:11:30.642Z,2727
2023-05-19T10:12:51.742Z,3010
2023-05-19T10:14:12.827Z,2609
2023-05-19T10:15:33.906Z,2649
2023-05-19T10:16:54.980Z,2878
2023-05-19T10:18:16.075Z,3596
2023-05-19T10:19:37.111Z,2896
2023-05-19T10:20:58.215Z,4394
2023-05-19T10:22:18.311Z,4015
2023-05-19T10:23:39.374Z,3086
2023-05-19T10:25:00.460Z,4361
2023-05-19T10:26:21.539Z,3526
2023-05-19T10:27:42.621Z,3617
2023-05-19T10:29:03.678Z,4320
2023-05-19T10:30:24.760Z,3546
2023-05-19T10:31:45.836Z,3611
2023-05-19T10:33:06.921Z,4327
2023-05-19T10:34:28.002Z,4460
2023-05-19T10:35:49.051Z,3430
2023-05-19T10:37:10.175Z,4748
2023-05-19T10:38:31.238Z,4218
2023-05-19T10:39:51.335Z,3583
2023-05-19T10:41:12.408Z,3690
2023-05-19T10:42:33.479Z,3837
2023-05-19T10:43:54.531Z,4390
2023-05-19T10:45:15.616Z,4713
2023-05-19T10:46:36.710Z,4775
2023-05-19T10:47:57.813Z,4941
2023-05-19T10:49:18.869Z,4918
2023-05-19T10:50:39.941Z,4940
2023-05-19T10:52:01.034Z,4276
2023-05-19T10:53:22.093Z,4709
2023-05-19T10:54:43.155Z,4698
2023-05-19T10:56:04.256Z,4464
2023-05-19T10:57:24.358Z,4206
2023-05-19T10:58:45.420Z,4446
2023-05-19T11:00:06.498Z,4502
2023-05-19T11:01:27.576Z,4238
2023-05-19T11:02:48.664Z,4197
2023-05-19T11:04:09.735Z,4599
2023-05-19T11:05:30.828Z,4618
2023-05-19T11:06:51.888Z,4594
2023-05-19T11:08:12.970Z,3072
2023-05-19T11:09:34.057Z,4382
2023-05-19T11:10:55.102Z,4471
2023-05-19T11:12:16.178Z,4425
2023-05-19T11:13:37.288Z,4170
2023-05-19T11:14:57.356Z,3659
2023-05-19T11:16:18.445Z,3332
2023-05-19T11:17:39.554Z,3543
2023-05-19T11:19:00.624Z,3072
2023-05-19T11:20:21.705Z,3697
2023-05-19T11:21:42.777Z,3078
2023-05-19T11:23:03.850Z,2857
2023-05-19T11:24:24.924Z,2932
2023-05-19T11:25:46.000Z,3741
2023-05-19T11:27:07.076Z,3758
2023-05-19T11:28:28.155Z,3186
2023-05-19T11:29:49.233Z,2852
2023-05-19T11:31:10.321Z,2852
2023-05-19T11:32:30.387Z,2997
2023-05-19T11:33:51.477Z,2837
2023-05-19T11:35:12.564Z,2794
2023-05-19T11:36:33.610Z,2715
2023-05-19T11:37:54.712Z,3352
2023-05-19T11:39:15.793Z,3072
2023-05-19T11:40:36.862Z,3568
2023-05-19T11:41:57.938Z,3497
2023-05-19T11:43:19.021Z,3141
2023-05-19T11:44:40.094Z,2893
2023-05-19T11:46:01.179Z,3157
2023-05-19T11:47:22.258Z,3280
2023-05-19T11:48:43.338Z,3330
2023-05-19T11:50:03.391Z,3395
2023-05-19T11:51:24.498Z,3539
2023-05-19T11:52:45.572Z,3825
2023-05-19T11:54:06.655Z,3867
2023-05-19T11:55:27.736Z,3955
2023-05-19T11:56:48.800Z,3812
2023-05-19T11:58:09.858Z,3237
2023-05-19T11:59:30.957Z,3067
2023-05-19T12:00:52.029Z,2841
2023-05-19T12:02:13.123Z,2922
2023-05-19T12:03:34.184Z,2811
2023-05-19T12:04:55.279Z,2982
2023-05-19T12:06:16.337Z,2695
2023-05-19T12:07:36.442Z,2677
2023-05-19T12:08:57.487Z,2912
2023-05-19T12:10:18.596Z,2945
2023-05-19T12:11:39.638Z,3072
2023-05-19T12:13:00.712Z,2374
2023-05-19T12:14:21.825Z,2578
2023-05-19T12:15:42.902Z,2928
2023-05-19T12:17:03.975Z,2714
2023-05-19T12:18:25.054Z,3328
2023-05-19T12:19:46.121Z,3072
2023-05-19T12:21:07.206Z,2848
2023-05-19T12:22:28.247Z,3072
2023-05-19T12:23:49.355Z,2815
2023-05-19T12:25:09.453Z,2844
2023-05-19T12:26:30.522Z,2800
2023-05-19T12:27:51.610Z,2406
2023-05-19T12:29:12.680Z,2410
2023-05-19T12:30:33.767Z,2339
2023-05-19T12:31:54.850Z,2357
2023-05-19T12:33:15.927Z,2325
2023-05-19T12:34:36.988Z,2514
2023-05-19T12:35:58.083Z,2563
2023-05-19T12:37:19.137Z,2252
2023-05-19T12:38:40.240Z,2107
2023-05-19T12:40:01.310Z,2035
2023-05-19T12:41:22.400Z,2579
2023-05-19T12:42:42.486Z,3072
2023-05-19T12:44:03.581Z,2547
2023-05-19T12:45:24.644Z,2493
2023-05-19T12:46:45.719Z,2440
2023-05-19T12:48:06.808Z,2402
2023-05-19T12:49:27.845Z,2448
2023-05-19T12:50:48.955Z,2394
2023-05-19T12:52:09.998Z,3072
2023-05-19T12:53:31.100Z,2383
2023-05-19T12:54:52.188Z,2412
2023-05-19T12:56:13.265Z,2393
2023-05-19T12:57:34.328Z,2292
2023-05-19T12:58:55.421Z,2551
2023-05-19T13:00:15.515Z,2575
2023-05-19T13:01:36.552Z,3072
2023-05-19T13:02:57.656Z,2557
2023-05-19T13:04:18.705Z,2914
2023-05-19T13:05:39.778Z,2470
2023-05-19T13:07:00.899Z,2901
2023-05-19T13:08:21.973Z,3072
2023-05-19T13:09:43.006Z,2425
2023-05-19T13:11:04.114Z,2404
2023-05-19T13:12:25.197Z,2579
2023-05-19T13:13:46.253Z,2872
2023-05-19T13:15:07.317Z,2651
2023-05-19T13:16:28.351Z,3060
2023-05-19T13:17:48.472Z,3246
2023-05-19T13:19:09.565Z,2512
2023-05-19T13:20:30.631Z,2624
2023-05-19T13:21:51.685Z,2726
2023-05-19T13:23:12.752Z,2651
2023-05-19T13:24:33.859Z,2585
2023-05-19T13:25:53.970Z,2548
2023-05-19T13:27:15.042Z,2558
2023-05-19T13:28:36.123Z,2044
2023-05-19T13:29:57.204Z,1856
2023-05-19T13:31:18.284Z,2049
2023-05-19T13:32:39.326Z,2173
2023-05-19T13:34:00.437Z,2304
2023-05-19T13:35:21.511Z,2353
2023-05-19T13:36:42.601Z,2328
2023-05-19T13:38:03.673Z,1862
2023-05-19T13:39:24.754Z,1982
2023-05-19T13:40:45.826Z,2306
2023-05-19T13:42:06.890Z,2447
2023-05-19T13:43:26.990Z,2319
2023-05-19T13:44:48.065Z,2304
2023-05-19T13:46:09.156Z,2261
2023-05-19T13:47:30.180Z,2012
2023-05-19T13:48:51.293Z,2063
2023-05-19T13:50:12.383Z,2245
2023-05-19T13:51:33.403Z,2166
2023-05-19T13:52:54.529Z,2220
2023-05-19T13:54:15.595Z,2266
2023-05-19T13:55:36.680Z,2379
2023-05-19T13:56:57.745Z,2542
2023-05-19T13:58:18.795Z,2525
2023-05-19T13:59:39.859Z,3072
2023-05-19T14:00:59.995Z,2417
2023-05-19T14:02:21.059Z,2359
2023-05-19T14:03:42.139Z,1861
2023-05-19T14:05:03.221Z,1654
2023-05-19T14:06:24.287Z,1758
2023-05-19T14:07:45.319Z,1958
2023-05-19T14:09:06.434Z,1929
2023-05-19T14:10:27.528Z,1923
2023-05-19T14:11:48.558Z,2011
2023-05-19T14:13:09.612Z,1872
2023-05-19T14:14:30.686Z,2167
2023-05-19T14:15:51.799Z,2198
2023-05-19T14:17:12.873Z,1793
2023-05-19T14:18:32.939Z,1865
2023-05-19T14:19:54.003Z,1915
2023-05-19T14:21:15.078Z,1955
2023-05-19T14:22:36.150Z,1917
2023-05-19T14:23:57.211Z,1938
2023-05-19T14:25:18.309Z,1901
2023-05-19T14:26:39.377Z,1899
2023-05-19T14:28:00.468Z,1899
2023-05-19T14:29:21.519Z,1889
2023-05-19T14:30:42.596Z,1917
2023-05-19T14:32:03.675Z,1937
2023-05-19T14:34:45.843Z,1964
2023-05-19T14:36:05.920Z,2015
2023-05-19T14:37:27.011Z,2022
2023-05-19T14:38:48.081Z,1993
2023-05-19T14:40:09.158Z,1907
2023-05-19T14:41:30.250Z,2061
2023-05-19T14:42:51.317Z,2389
2023-05-19T14:44:12.399Z,2223
2023-05-19T14:45:33.468Z,2212
2023-05-19T14:46:54.548Z,2185
2023-05-19T14:48:15.637Z,2174
2023-05-19T14:49:36.705Z,3072
2023-05-19T14:50:57.795Z,2087
2023-05-19T14:52:18.869Z,1839
2023-05-19T14:53:38.960Z,1771
2023-05-19T14:54:59.969Z,2321
2023-05-19T14:56:21.085Z,1948
2023-05-19T14:57:42.168Z,1954
2023-05-19T14:59:03.248Z,1934
2023-05-19T15:00:24.271Z,1930
2023-05-19T15:01:45.383Z,1843
2023-05-19T15:03:06.476Z,1600
2023-05-19T15:04:27.549Z,1812
2023-05-19T15:05:48.623Z,3072
2023-05-19T15:07:09.695Z,1894
2023-05-19T15:08:30.754Z,1798
2023-05-19T15:09:51.813Z,1780
2023-05-19T15:11:11.867Z,1915
2023-05-19T15:12:32.974Z,1846
2023-05-19T15:13:54.051Z,1780
2023-05-19T15:15:15.120Z,1771
2023-05-19T15:16:36.173Z,1735
2023-05-19T15:17:57.267Z,1710
2023-05-19T15:19:18.318Z,1730
2023-05-19T15:20:39.353Z,1745
2023-05-19T15:22:00.472Z,1792
2023-05-19T15:23:21.531Z,1833
2023-05-19T15:24:42.593Z,1896
2023-05-19T15:26:03.648Z,3072
2023-05-19T15:27:24.717Z,2019
2023-05-19T15:28:44.766Z,1939
2023-05-19T15:30:05.875Z,1788
2023-05-19T15:31:26.952Z,1936
2023-05-19T15:32:47.967Z,1975
2023-05-19T15:34:09.042Z,1945
2023-05-19T15:35:30.098Z,2052
2023-05-19T15:36:51.219Z,2140
2023-05-19T15:38:12.279Z,2206
2023-05-19T15:39:33.339Z,2231
2023-05-19T15:40:54.380Z,2131
2023-05-19T15:42:15.476Z,1979
2023-05-19T15:43:36.498Z,2106
2023-05-19T15:44:57.609Z,1887
2023-05-19T15:46:17.705Z,2119
2023-05-19T15:47:38.759Z,2122
2023-05-19T15:48:59.846Z,2081
2023-05-19T15:50:20.853Z,2070
2023-05-19T15:51:41.925Z,2109
2023-05-19T15:53:03.045Z,2093
2023-05-19T15:54:24.054Z,3072
2023-05-19T15:55:45.159Z,1950
2023-05-19T15:57:06.228Z,2037
2023-05-19T15:58:27.307Z,2096
2023-05-19T15:59:48.373Z,2018
2023-05-19T16:01:09.389Z,2211
2023-05-19T16:02:30.495Z,2038
2023-05-19T16:03:50.601Z,2080
2023-05-19T16:05:11.651Z,1972
2023-05-19T16:06:32.720Z,3072
2023-05-19T16:07:53.800Z,1864
2023-05-19T16:09:14.853Z,1812
2023-05-19T16:10:35.925Z,1702
2023-05-19T16:11:56.988Z,1715
2023-05-19T16:13:18.064Z,3072
2023-05-19T16:14:39.132Z,1654
2023-05-19T16:16:00.149Z,1652
2023-05-19T16:17:21.264Z,1735
2023-05-19T16:18:42.275Z,1505
2023-05-19T16:20:03.381Z,1438
2023-05-19T16:21:23.474Z,1441
2023-05-19T16:22:44.543Z,1418
2023-05-19T16:24:05.610Z,1531
2023-05-19T16:25:26.637Z,1714
2023-05-19T16:26:47.741Z,1708
2023-05-19T16:28:08.760Z,1660
2023-05-19T16:29:29.883Z,3072
2023-05-19T16:30:50.953Z,1516
2023-05-19T16:32:11.963Z,3072
2023-05-19T16:33:33.077Z,1488
2023-05-19T16:34:54.147Z,1541
2023-05-19T16:36:15.214Z,1547
2023-05-19T16:37:36.240Z,1526
2023-05-19T16:38:56.313Z,1536
2023-05-19T16:40:17.424Z,1457
2023-05-19T16:41:38.498Z,3072
2023-05-19T16:42:59.559Z,1406
2023-05-19T16:44:20.632Z,1369
2023-05-19T16:45:41.690Z,1322
2023-05-19T16:47:02.716Z,1380
2023-05-19T16:48:23.791Z,1422
2023-05-19T16:49:44.895Z,1415
2023-05-19T16:51:05.912Z,1371
2023-05-19T16:52:27.032Z,1338
2023-05-19T16:53:48.087Z,1363
2023-05-19T16:55:09.120Z,1407
2023-05-19T16:56:29.251Z,1414
2023-05-19T16:57:50.311Z,1421
2023-05-19T16:59:11.385Z,1442
2023-05-19T17:00:32.444Z,1435
2023-05-19T17:01:53.503Z,1390
2023-05-19T17:03:14.568Z,1371
2023-05-19T17:04:35.600Z,1410
2023-05-19T17:05:56.666Z,1454
2023-05-19T17:07:17.778Z,1448
2023-05-19T17:08:38.797Z,1426
2023-05-19T17:09:59.901Z,1433
2023-05-19T17:11:20.982Z,1416
2023-05-19T17:12:42.001Z,1408
2023-05-19T17:14:02.136Z,1388
2023-05-19T17:15:23.193Z,1377
2023-05-19T17:16:44.262Z,1361
2023-05-19T17:18:05.326Z,1370
2023-05-19T17:19:26.342Z,1382
2023-05-19T17:20:47.470Z,1373
2023-05-19T17:22:08.477Z,1359
2023-05-19T17:23:29.600Z,1355
2023-05-19T17:24:50.658Z,1339
2023-05-19T17:26:11.717Z,1312
2023-05-19T17:27:32.802Z,3072
2023-05-19T17:28:53.809Z,1267
2023-05-19T17:30:14.931Z,1247
2023-05-19T17:31:35.018Z,1222
2023-05-19T17:32:56.056Z,1191
2023-05-19T17:34:17.153Z,1178
2023-05-19T17:35:38.184Z,1151
2023-05-19T17:36:59.275Z,1122
2023-05-19T17:38:20.358Z,1094
2023-05-19T17:39:41.423Z,1057
2023-05-19T17:41:02.499Z,1033
2023-05-19T17:42:23.554Z,1014
2023-05-19T17:43:44.620Z,984
2023-05-19T17:45:05.685Z,963
2023-05-19T17:46:26.729Z,924
2023-05-19T17:47:47.826Z,891
2023-05-19T17:49:07.879Z,856
2023-05-19T17:50:28.954Z,824
2023-05-19T17:51:50.050Z,787
2023-05-19T17:53:11.078Z,759
2023-05-19T17:54:32.185Z,721
2023-05-19T17:55:53.258Z,683
2023-05-19T17:57:13.331Z,654
2023-05-19T17:58:34.413Z,622
2023-05-19T17:59:55.471Z,585
2023-05-19T18:01:16.546Z,549
2023-05-19T18:02:37.581Z,520
2023-05-19T18:03:58.636Z,489
2023-05-19T18:05:19.740Z,459
2023-05-19T18:06:40.796Z,431
2023-05-19T18:08:01.881Z,398
2023-05-19T18:09:22.907Z,380
2023-05-19T18:10:44.013Z,356
2023-05-19T18:12:05.073Z,333
2023-05-19T18:13:26.110Z,315
2023-05-19T18:14:46.233Z,290
2023-05-19T18:16:07.259Z,269
2023-05-19T18:17:28.350Z,254
2023-05-19T18:18:49.417Z,243
2023-05-19T18:20:10.452Z,229
2023-05-19T18:21:31.551Z,217
2023-05-19T18:22:52.574Z,205
2023-05-19T18:24:13.686Z,196
2023-05-19T18:25:34.710Z,187
2023-05-19T18:26:55.770Z,182
2023-05-19T18:28:16.839Z,166
2023-05-19T18:29:37.941Z,164
2023-05-19T18:30:59.004Z,159
2023-05-19T18:32:19.086Z,149
2023-05-19T18:33:40.148Z,146
2023-05-19T18:35:01.220Z,142
2023-05-19T18:36:22.290Z,134
2023-05-19T18:37:43.351Z,128
2023-05-19T18:39:04.435Z,120
2023-05-19T18:40:25.489Z,112
2023-05-19T18:41:46.521Z,105
2023-05-19T18:43:07.592Z,104
2023-05-19T18:44:28.664Z,101
2023-05-19T18:45:49.760Z,100
2023-05-19T18:47:10.837Z,3072
2023-05-19T18:48:31.892Z,91
2023-05-19T18:49:51.969Z,87
2023-05-19T18:51:13.043Z,88
2023-05-19T18:52:34.113Z,86
2023-05-19T18:53:55.174Z,71
2023-05-19T18:55:16.245Z,63
2023-05-19T18:56:37.279Z,63
2023-05-19T18:57:58.387Z,60
2023-05-19T18:59:19.453Z,52
2023-05-19T19:00:40.509Z,48
2023-05-19T19:02:01.582Z,42
2023-05-19T19:03:22.653Z,33
2023-05-19T19:04:43.718Z,31
2023-05-19T19:06:04.771Z,26
2023-05-19T19:07:24.869Z,15
2023-05-19T19:08:45.900Z,15
2023-05-19T19:10:07.007Z,16
2023-05-19T19:11:28.054Z,10
2023-05-19T19:12:49.122Z,10
2023-05-19T19:14:10.162Z,9
2023-05-19T19:15:31.269Z,11
2023-05-19T19:16:52.285Z,8
2023-05-19T19:18:13.361Z,5
2023-05-19T19:19:34.467Z,5
2023-05-19T19:20:55.526Z,2
2023-05-19T19:22:16.596Z,3
2023-05-19T19:23:37.642Z,5
2023-05-19T19:24:57.712Z,1
2023-05-19T19:26:18.818Z,2
2023-05-19T19:27:39.881Z,3
2023-05-19T19:29:00.961Z,1
2023-05-19T19:30:22.020Z,2
2023-05-19T19:31:43.130Z,0
2023-05-19T19:33:04.242Z,0
2023-05-19T19:34:25.270Z,1
2023-05-19T19:35:46.365Z,1
2023-05-19T19:37:07.476Z,0
2023-05-19T19:38:28.550Z,0
2023-05-19T19:39:49.715Z,0
2023-05-19T19:41:10.813Z,0
2023-05-19T19:42:30.935Z,0
2023-05-19T19:43:52.039Z,0
2023-05-19T19:45:13.160Z,0
2023-05-19T19:46:34.265Z,0
2023-05-19T19:47:55.339Z,0
2023-05-19T19:49:16.445Z,0
2023-05-19T19:50:37.557Z,0
2023-05-19T19:51:58.710Z,0
2023-05-19T19:53:19.800Z,0
2023-05-19T19:54:40.916Z,0
2023-05-19T19:56:02.040Z,0
2023-05-19T19:57:23.146Z,0
2023-05-19T19:58:44.255Z,0
2023-05-19T20:00:04.371Z,0
2023-05-19T20:01:25.442Z,0
2023-05-19T20:02:46.595Z,0
2023-05-19T20:04:07.690Z,0
2023-05-19T20:05:28.814Z,0
2023-05-19T20:06:49.912Z,0
2023-05-19T20:08:11.015Z,0
2023-05-19T20:09:32.129Z,0
2023-05-19T20:10:53.207Z,0
2023-05-19T20:12:14.359Z,0
2023-05-19T20:13:35.461Z,0
2023-05-19T20:14:56.561Z,0
2023-05-19T20:16:17.669Z,0
2023-05-19T20:17:37.807Z,0
2023-05-19T20:18:58.912Z,0
2023-05-19T20:20:20.014Z,0
2023-05-19T20:21:41.134Z,0
2023-05-19T20:23:02.252Z,0
2023-05-19T20:24:23.360Z,0
2023-05-19T20:25:44.456Z,0
2023-05-19T20:27:05.565Z,0
2023-05-19T20:28:26.680Z,0
2023-05-19T20:29:47.798Z,0
2023-05-19T20:31:08.870Z,0
2023-05-19T20:32:30.017Z,0
2023-05-19T20:33:51.071Z,0
2023-05-19T20:35:11.245Z,0
2023-05-19T20:36:32.356Z,0
2023-05-19T20:37:53.466Z,0
2023-05-19T20:39:14.579Z,0
2023-05-19T20:41:56.744Z,0
2023-05-19T20:43:17.865Z,0
2023-05-19T20:44:38.967Z,0
2023-05-19T20:46:00.083Z,0
2023-05-19T20:47:21.184Z,0
2023-05-19T20:48:42.306Z,0
2023-05-19T20:50:03.419Z,0
2023-05-19T20:51:24.519Z,0
2023-05-19T20:52:44.635Z,0
2023-05-19T20:54:05.746Z,0
2023-05-19T20:55:26.868Z,0
2023-05-19T20:56:47.975Z,0
2023-05-19T20:58:09.071Z,0
2023-05-19T20:59:30.196Z,0
2023-05-19T21:00:51.296Z,0
2023-05-19T21:02:12.401Z,0
2023-05-19T21:03:33.532Z,0
2023-05-19T21:04:54.636Z,0
2023-05-19T21:06:15.723Z,0
2023-05-19T21:07:36.841Z,0
2023-05-19T21:08:57.952Z,0
2023-05-19T21:10:18.076Z,0
2023-05-19T21:13:00.302Z,0
2023-05-19T21:14:21.406Z,0
2023-05-19T21:15:42.506Z,0
2023-05-19T21:17:03.630Z,0
2023-05-19T21:19:45.847Z,0
2023-05-19T21:21:06.952Z,0
2023-05-19T21:22:28.049Z,0
2023-05-19T21:23:49.154Z,0
2023-05-19T21:25:10.278Z,0
2023-05-19T21:26:31.371Z,0
2023-05-19T21:27:51.506Z,0
2023-05-19T21:29:12.618Z,0
2023-05-19T21:30:33.717Z,0
2023-05-19T21:31:54.831Z,0
2023-05-19T21:33:15.938Z,0
2023-05-19T21:34:37.037Z,0
2023-05-19T21:35:58.154Z,0
2023-05-19T21:37:19.264Z,0
2023-05-19T21:38:40.381Z,0
2023-05-19T21:40:01.480Z,0
2023-05-19T21:41:22.594Z,0
2023-05-19T21:42:43.696Z,0
2023-05-19T21:44:04.809Z,0
2023-05-19T21:45:24.932Z,0
2023-05-19T21:46:46.047Z,0
2023-05-19T21:48:07.150Z,0
2023-05-19T21:49:28.254Z,0
2023-05-19T21:50:49.365Z,0
2023-05-19T21:52:10.465Z,0
2023-05-19T21:53:31.000Z,0
2023-05-19T21:54:52.701Z,0
2023-05-19T21:56:13.794Z,0
2023-05-19T21:57:34.909Z,0
2023-05-19T21:58:56.020Z,0
2023-05-19T22:00:17.116Z,0
2023-05-19T22:01:38.228Z,0
2023-05-19T22:02:58.365Z,0
2023-05-19T22:04:19.460Z,0
2023-05-19T22:05:40.569Z,0
2023-05-19T22:07:01.684Z,0
2023-05-19T22:08:22.798Z,0
2023-05-19T22:09:43.898Z,0
2023-05-19T22:11:04.999Z,0
2023-05-19T22:12:26.115Z,0
2023-05-19T22:13:47.238Z,0
2023-05-19T22:15:08.315Z,0
2023-05-19T22:16:29.450Z,0
2023-05-19T22:17:50.541Z,0
2023-05-19T22:19:11.651Z,0
2023-05-19T22:20:31.782Z,0
2023-05-19T22:21:52.883Z,0
2023-05-19T22:23:13.995Z,0
2023-05-19T22:24:35.099Z,0
2023-05-19T22:25:56.223Z,0
2023-05-19T22:27:17.333Z,0
2023-05-19T22:28:37.468Z,0
2023-05-19T22:29:58.567Z,0
2023-05-19T22:31:19.688Z,0
2023-05-19T22:32:40.780Z,0
2023-05-19T22:34:01.903Z,0
2023-05-19T22:35:23.001Z,0
2023-05-19T22:36:44.105Z,0
2023-05-19T22:38:05.208Z,0
2023-05-19T22:39:26.331Z,0
2023-05-19T22:40:47.420Z,0
2023-05-19T22:42:08.541Z,0
2023-05-19T22:43:29.635Z,0
2023-05-19T22:44:50.764Z,0
2023-05-19T22:46:10.884Z,0
2023-05-19T22:47:31.989Z,0
2023-05-19T22:48:53.111Z,0
2023-05-19T22:50:14.216Z,0
2023-05-19T22:51:35.326Z,0
2023-05-19T22:52:56.414Z,0
2023-05-19T22:54:17.517Z,0
2023-05-19T22:55:38.631Z,0
2023-05-19T22:56:59.729Z,0
2023-05-19T22:58:20.865Z,0
2023-05-19T22:59:41.976Z,0
2023-05-19T23:01:03.073Z,0
2023-05-19T23:16:24.039Z,0
2023-05-19T23:31:44.008Z,0
2023-05-19T23:47:04.997Z,0
